sensor_id;sensor_type;location;lat;lon;timestamp;P1;durP1;ratioP1;P2;durP2;ratioP2
66741;SDS011;53654;54.152;19.432;2022-08-18T00:01:10;14.20;;;12.80;;
66741;SDS011;53654;54.152;19.432;2022-08-18T00:03:42;14.70;;;13.40;;
66741;SDS011;53654;54.152;19.432;2022-08-18T00:06:26;14.90;;;13.10;;
66741;SDS011;53654;54.152;19.432;2022-08-18T00:08:57;14.70;;;13.20;;
66741;SDS011;53654;54.152;19.432;2022-08-18T00:11:27;14.30;;;13.00;;
66741;SDS011;53654;54.152;19.432;2022-08-18T00:14:16;13.40;;;12.20;;
66741;SDS011;53654;54.152;19.432;2022-08-18T00:16:49;13.20;;;12.00;;
66741;SDS011;53654;54.152;19.432;2022-08-18T00:19:20;12.50;;;11.30;;
66741;SDS011;53654;54.152;19.432;2022-08-18T00:22:10;12.20;;;11.20;;
66741;SDS011;53654;54.152;19.432;2022-08-18T00:24:43;12.70;;;11.40;;
66741;SDS011;53654;54.152;19.432;2022-08-18T00:27:26;12.80;;;11.70;;
66741;SDS011;53654;54.152;19.432;2022-08-18T00:29:57;13.30;;;12.20;;
66741;SDS011;53654;54.152;19.432;2022-08-18T00:32:29;14.50;;;12.60;;
66741;SDS011;53654;54.152;19.432;2022-08-18T00:35:22;11.90;;;10.80;;
66741;SDS011;53654;54.152;19.432;2022-08-18T00:37:56;11.60;;;10.70;;
66741;SDS011;53654;54.152;19.432;2022-08-18T00:40:28;10.90;;;9.60;;
66741;SDS011;53654;54.152;19.432;2022-08-18T00:43:05;10.50;;;9.60;;
66741;SDS011;53654;54.152;19.432;2022-08-18T00:45:36;11.00;;;9.00;;
66741;SDS011;53654;54.152;19.432;2022-08-18T00:48:07;10.30;;;9.20;;
66741;SDS011;53654;54.152;19.432;2022-08-18T00:50:43;10.30;;;9.30;;
66741;SDS011;53654;54.152;19.432;2022-08-18T00:55:51;10.00;;;9.20;;
66741;SDS011;53654;54.152;19.432;2022-08-18T00:58:23;9.00;;;8.20;;
66741;SDS011;53654;54.152;19.432;2022-08-18T01:00:56;10.40;;;8.30;;
66741;SDS011;53654;54.152;19.432;2022-08-18T01:03:31;9.10;;;8.30;;
66741;SDS011;53654;54.152;19.432;2022-08-18T01:06:04;10.90;;;8.70;;
66741;SDS011;53654;54.152;19.432;2022-08-18T01:08:36;9.00;;;8.20;;
66741;SDS011;53654;54.152;19.432;2022-08-18T01:11:07;10.30;;;8.90;;
66741;SDS011;53654;54.152;19.432;2022-08-18T01:13:39;10.00;;;9.10;;
66741;SDS011;53654;54.152;19.432;2022-08-18T01:16:09;9.60;;;7.90;;
66741;SDS011;53654;54.152;19.432;2022-08-18T01:18:56;12.00;;;8.40;;
66741;SDS011;53654;54.152;19.432;2022-08-18T01:21:45;9.10;;;8.20;;
66741;SDS011;53654;54.152;19.432;2022-08-18T01:24:22;9.20;;;8.30;;
66741;SDS011;53654;54.152;19.432;2022-08-18T01:27:15;9.60;;;8.60;;
66741;SDS011;53654;54.152;19.432;2022-08-18T01:29:46;11.00;;;8.80;;
66741;SDS011;53654;54.152;19.432;2022-08-18T01:32:20;10.60;;;8.20;;
66741;SDS011;53654;54.152;19.432;2022-08-18T01:34:50;9.40;;;8.30;;
66741;SDS011;53654;54.152;19.432;2022-08-18T01:37:20;9.80;;;8.00;;
66741;SDS011;53654;54.152;19.432;2022-08-18T01:39:50;9.30;;;7.90;;
66741;SDS011;53654;54.152;19.432;2022-08-18T01:42:39;10.40;;;7.70;;
66741;SDS011;53654;54.152;19.432;2022-08-18T01:45:10;9.00;;;7.70;;
66741;SDS011;53654;54.152;19.432;2022-08-18T01:47:41;9.20;;;8.40;;
66741;SDS011;53654;54.152;19.432;2022-08-18T01:50:24;8.20;;;7.50;;
66741;SDS011;53654;54.152;19.432;2022-08-18T01:52:53;9.30;;;8.50;;
66741;SDS011;53654;54.152;19.432;2022-08-18T01:55:21;9.10;;;8.20;;
66741;SDS011;53654;54.152;19.432;2022-08-18T01:57:50;9.50;;;8.60;;
66741;SDS011;53654;54.152;19.432;2022-08-18T02:00:18;9.90;;;8.50;;
66741;SDS011;53654;54.152;19.432;2022-08-18T02:02:47;9.30;;;8.50;;
66741;SDS011;53654;54.152;19.432;2022-08-18T02:05:29;9.40;;;8.20;;
66741;SDS011;53654;54.152;19.432;2022-08-18T02:08:00;9.00;;;8.20;;
66741;SDS011;53654;54.152;19.432;2022-08-18T02:10:30;10.00;;;8.40;;
66741;SDS011;53654;54.152;19.432;2022-08-18T02:12:58;10.10;;;8.80;;
66741;SDS011;53654;54.152;19.432;2022-08-18T02:15:26;10.50;;;8.60;;
66741;SDS011;53654;54.152;19.432;2022-08-18T02:17:55;9.60;;;8.40;;
66741;SDS011;53654;54.152;19.432;2022-08-18T02:20:23;13.60;;;9.30;;
66741;SDS011;53654;54.152;19.432;2022-08-18T02:22:52;11.10;;;8.90;;
66741;SDS011;53654;54.152;19.432;2022-08-18T02:25:20;10.00;;;8.80;;
66741;SDS011;53654;54.152;19.432;2022-08-18T02:27:49;8.90;;;8.00;;
66741;SDS011;53654;54.152;19.432;2022-08-18T02:30:18;9.80;;;8.80;;
66741;SDS011;53654;54.152;19.432;2022-08-18T02:32:46;11.80;;;8.70;;
66741;SDS011;53654;54.152;19.432;2022-08-18T02:35:14;9.60;;;8.60;;
66741;SDS011;53654;54.152;19.432;2022-08-18T02:37:43;11.80;;;9.00;;
66741;SDS011;53654;54.152;19.432;2022-08-18T02:40:15;10.20;;;8.30;;
66741;SDS011;53654;54.152;19.432;2022-08-18T02:42:44;9.70;;;8.70;;
66741;SDS011;53654;54.152;19.432;2022-08-18T02:45:13;9.30;;;8.40;;
66741;SDS011;53654;54.152;19.432;2022-08-18T02:47:42;9.80;;;8.90;;
66741;SDS011;53654;54.152;19.432;2022-08-18T02:50:11;8.90;;;8.00;;
66741;SDS011;53654;54.152;19.432;2022-08-18T02:52:40;10.80;;;8.70;;
66741;SDS011;53654;54.152;19.432;2022-08-18T02:55:08;9.00;;;8.20;;
66741;SDS011;53654;54.152;19.432;2022-08-18T02:57:40;9.40;;;8.50;;
66741;SDS011;53654;54.152;19.432;2022-08-18T03:00:11;11.70;;;8.70;;
66741;SDS011;53654;54.152;19.432;2022-08-18T03:02:46;9.70;;;8.90;;
66741;SDS011;53654;54.152;19.432;2022-08-18T03:05:15;9.00;;;8.10;;
66741;SDS011;53654;54.152;19.432;2022-08-18T03:07:44;10.00;;;9.10;;
66741;SDS011;53654;54.152;19.432;2022-08-18T03:10:13;9.40;;;8.60;;
66741;SDS011;53654;54.152;19.432;2022-08-18T03:13:00;9.70;;;8.70;;
66741;SDS011;53654;54.152;19.432;2022-08-18T03:15:29;11.90;;;8.80;;
66741;SDS011;53654;54.152;19.432;2022-08-18T03:17:57;11.20;;;8.60;;
66741;SDS011;53654;54.152;19.432;2022-08-18T03:20:26;10.70;;;9.60;;
66741;SDS011;53654;54.152;19.432;2022-08-18T03:22:57;12.90;;;9.40;;
66741;SDS011;53654;54.152;19.432;2022-08-18T03:25:42;9.20;;;8.40;;
66741;SDS011;53654;54.152;19.432;2022-08-18T03:28:12;10.00;;;8.90;;
66741;SDS011;53654;54.152;19.432;2022-08-18T03:30:41;10.00;;;9.00;;
66741;SDS011;53654;54.152;19.432;2022-08-18T03:33:10;9.40;;;8.60;;
66741;SDS011;53654;54.152;19.432;2022-08-18T03:35:38;11.90;;;9.30;;
66741;SDS011;53654;54.152;19.432;2022-08-18T03:38:07;9.90;;;9.00;;
66741;SDS011;53654;54.152;19.432;2022-08-18T03:40:35;9.10;;;8.30;;
66741;SDS011;53654;54.152;19.432;2022-08-18T03:43:04;10.70;;;8.80;;
66741;SDS011;53654;54.152;19.432;2022-08-18T03:45:53;10.00;;;9.00;;
66741;SDS011;53654;54.152;19.432;2022-08-18T03:48:21;11.10;;;9.10;;
66741;SDS011;53654;54.152;19.432;2022-08-18T03:50:49;12.10;;;9.20;;
66741;SDS011;53654;54.152;19.432;2022-08-18T03:53:17;10.80;;;9.70;;
66741;SDS011;53654;54.152;19.432;2022-08-18T03:55:46;10.80;;;9.10;;
66741;SDS011;53654;54.152;19.432;2022-08-18T03:58:14;11.50;;;8.90;;
66741;SDS011;53654;54.152;19.432;2022-08-18T04:00:54;11.60;;;8.90;;
66741;SDS011;53654;54.152;19.432;2022-08-18T04:03:22;10.90;;;9.40;;
66741;SDS011;53654;54.152;19.432;2022-08-18T04:05:50;11.40;;;8.50;;
66741;SDS011;53654;54.152;19.432;2022-08-18T04:08:18;12.90;;;9.40;;
66741;SDS011;53654;54.152;19.432;2022-08-18T04:10:47;11.50;;;8.90;;
66741;SDS011;53654;54.152;19.432;2022-08-18T04:13:15;10.10;;;9.00;;
66741;SDS011;53654;54.152;19.432;2022-08-18T04:15:43;12.00;;;9.30;;
66741;SDS011;53654;54.152;19.432;2022-08-18T04:18:11;11.10;;;8.90;;
66741;SDS011;53654;54.152;19.432;2022-08-18T04:20:39;10.20;;;8.70;;
66741;SDS011;53654;54.152;19.432;2022-08-18T04:23:26;10.50;;;9.20;;
66741;SDS011;53654;54.152;19.432;2022-08-18T04:25:55;10.50;;;9.40;;
66741;SDS011;53654;54.152;19.432;2022-08-18T04:28:25;10.10;;;9.10;;
66741;SDS011;53654;54.152;19.432;2022-08-18T04:30:55;11.30;;;9.40;;
66741;SDS011;53654;54.152;19.432;2022-08-18T04:33:26;10.60;;;9.50;;
66741;SDS011;53654;54.152;19.432;2022-08-18T04:35:55;12.20;;;9.70;;
66741;SDS011;53654;54.152;19.432;2022-08-18T04:38:23;10.80;;;9.60;;
66741;SDS011;53654;54.152;19.432;2022-08-18T04:40:51;9.70;;;8.60;;
66741;SDS011;53654;54.152;19.432;2022-08-18T04:43:20;10.40;;;9.40;;
66741;SDS011;53654;54.152;19.432;2022-08-18T04:45:48;10.60;;;9.40;;
66741;SDS011;53654;54.152;19.432;2022-08-18T04:48:17;9.90;;;8.90;;
66741;SDS011;53654;54.152;19.432;2022-08-18T04:50:49;10.40;;;9.20;;
66741;SDS011;53654;54.152;19.432;2022-08-18T04:53:17;10.60;;;9.60;;
66741;SDS011;53654;54.152;19.432;2022-08-18T04:56:04;11.00;;;9.20;;
66741;SDS011;53654;54.152;19.432;2022-08-18T04:58:32;11.80;;;8.60;;
66741;SDS011;53654;54.152;19.432;2022-08-18T05:01:02;12.10;;;8.50;;
66741;SDS011;53654;54.152;19.432;2022-08-18T05:03:30;10.00;;;8.90;;
66741;SDS011;53654;54.152;19.432;2022-08-18T05:05:58;9.70;;;8.80;;
66741;SDS011;53654;54.152;19.432;2022-08-18T05:08:31;10.60;;;9.40;;
66741;SDS011;53654;54.152;19.432;2022-08-18T05:10:59;14.30;;;9.00;;
66741;SDS011;53654;54.152;19.432;2022-08-18T05:13:30;11.60;;;9.70;;
66741;SDS011;53654;54.152;19.432;2022-08-18T05:15:59;12.70;;;10.20;;
66741;SDS011;53654;54.152;19.432;2022-08-18T05:18:46;13.80;;;11.30;;
66741;SDS011;53654;54.152;19.432;2022-08-18T05:21:19;11.30;;;9.80;;
66741;SDS011;53654;54.152;19.432;2022-08-18T05:23:50;14.40;;;10.60;;
66741;SDS011;53654;54.152;19.432;2022-08-18T05:26:18;10.90;;;8.40;;
66741;SDS011;53654;54.152;19.432;2022-08-18T05:29:01;9.70;;;8.40;;
66741;SDS011;53654;54.152;19.432;2022-08-18T05:31:47;9.80;;;8.10;;
66741;SDS011;53654;54.152;19.432;2022-08-18T05:34:16;10.30;;;8.70;;
66741;SDS011;53654;54.152;19.432;2022-08-18T05:41:50;9.10;;;8.20;;
66741;SDS011;53654;54.152;19.432;2022-08-18T05:44:30;9.40;;;7.80;;
66741;SDS011;53654;54.152;19.432;2022-08-18T05:47:46;10.10;;;8.50;;
66741;SDS011;53654;54.152;19.432;2022-08-18T05:50:03;12.20;;;8.30;;
66741;SDS011;53654;54.152;19.432;2022-08-18T05:52:45;11.50;;;8.30;;
66741;SDS011;53654;54.152;19.432;2022-08-18T05:58:27;11.20;;;7.90;;
66741;SDS011;53654;54.152;19.432;2022-08-18T06:01:09;10.80;;;8.40;;
66741;SDS011;53654;54.152;19.432;2022-08-18T06:03:49;10.80;;;8.60;;
66741;SDS011;53654;54.152;19.432;2022-08-18T06:06:23;10.00;;;8.70;;
66741;SDS011;53654;54.152;19.432;2022-08-18T06:08:57;9.90;;;8.70;;
66741;SDS011;53654;54.152;19.432;2022-08-18T06:11:49;11.00;;;8.70;;
66741;SDS011;53654;54.152;19.432;2022-08-18T06:14:18;9.90;;;8.70;;
66741;SDS011;53654;54.152;19.432;2022-08-18T06:16:57;11.40;;;8.70;;
66741;SDS011;53654;54.152;19.432;2022-08-18T06:22:33;10.30;;;9.10;;
66741;SDS011;53654;54.152;19.432;2022-08-18T06:28:07;11.80;;;8.40;;
66741;SDS011;53654;54.152;19.432;2022-08-18T06:35:54;10.90;;;8.40;;
66741;SDS011;53654;54.152;19.432;2022-08-18T06:38:46;11.70;;;8.70;;
66741;SDS011;53654;54.152;19.432;2022-08-18T06:41:46;15.10;;;9.50;;
66741;SDS011;53654;54.152;19.432;2022-08-18T06:50:18;10.70;;;9.00;;
66741;SDS011;53654;54.152;19.432;2022-08-18T06:52:50;10.70;;;9.70;;
66741;SDS011;53654;54.152;19.432;2022-08-18T06:55:38;10.60;;;9.60;;
66741;SDS011;53654;54.152;19.432;2022-08-18T07:00:53;10.40;;;9.40;;
66741;SDS011;53654;54.152;19.432;2022-08-18T07:06:03;10.50;;;9.50;;
66741;SDS011;53654;54.152;19.432;2022-08-18T07:08:39;10.80;;;9.70;;
66741;SDS011;53654;54.152;19.432;2022-08-18T07:14:11;13.90;;;9.10;;
66741;SDS011;53654;54.152;19.432;2022-08-18T07:16:43;10.40;;;9.40;;
66741;SDS011;53654;54.152;19.432;2022-08-18T07:19:29;11.00;;;9.80;;
66741;SDS011;53654;54.152;19.432;2022-08-18T07:22:10;14.20;;;9.50;;
66741;SDS011;53654;54.152;19.432;2022-08-18T07:24:45;10.60;;;9.50;;
66741;SDS011;53654;54.152;19.432;2022-08-18T07:30:03;11.00;;;10.00;;
66741;SDS011;53654;54.152;19.432;2022-08-18T07:35:31;11.00;;;9.70;;
66741;SDS011;53654;54.152;19.432;2022-08-18T07:38:06;11.70;;;10.10;;
66741;SDS011;53654;54.152;19.432;2022-08-18T07:41:09;11.50;;;9.80;;
66741;SDS011;53654;54.152;19.432;2022-08-18T07:46:22;11.10;;;10.00;;
66741;SDS011;53654;54.152;19.432;2022-08-18T07:48:50;11.50;;;10.10;;
66741;SDS011;53654;54.152;19.432;2022-08-18T07:54:12;10.60;;;9.40;;
66741;SDS011;53654;54.152;19.432;2022-08-18T08:00:13;10.80;;;9.70;;
66741;SDS011;53654;54.152;19.432;2022-08-18T08:14:41;13.10;;;9.30;;
66741;SDS011;53654;54.152;19.432;2022-08-18T08:22:36;10.40;;;8.20;;
66741;SDS011;53654;54.152;19.432;2022-08-18T08:34:07;9.40;;;8.50;;
66741;SDS011;53654;54.152;19.432;2022-08-18T08:36:42;10.80;;;9.10;;
66741;SDS011;53654;54.152;19.432;2022-08-18T08:39:23;9.70;;;8.10;;
66741;SDS011;53654;54.152;19.432;2022-08-18T08:42:00;9.50;;;8.00;;
66741;SDS011;53654;54.152;19.432;2022-08-18T08:44:57;10.80;;;7.80;;
66741;SDS011;53654;54.152;19.432;2022-08-18T08:50:53;8.40;;;7.60;;
66741;SDS011;53654;54.152;19.432;2022-08-18T08:53:27;8.10;;;7.30;;
66741;SDS011;53654;54.152;19.432;2022-08-18T08:56:00;12.60;;;7.30;;
66741;SDS011;53654;54.152;19.432;2022-08-18T08:58:47;11.50;;;6.90;;
66741;SDS011;53654;54.152;19.432;2022-08-18T09:14:48;8.60;;;7.30;;
66741;SDS011;53654;54.152;19.432;2022-08-18T09:23:08;11.60;;;7.30;;
66741;SDS011;53654;54.152;19.432;2022-08-18T09:28:17;9.60;;;7.30;;
66741;SDS011;53654;54.152;19.432;2022-08-18T09:35:58;7.80;;;7.20;;
66741;SDS011;53654;54.152;19.432;2022-08-18T09:38:29;8.00;;;7.30;;
66741;SDS011;53654;54.152;19.432;2022-08-18T09:41:19;7.80;;;7.00;;
66741;SDS011;53654;54.152;19.432;2022-08-18T09:44:03;8.60;;;7.30;;
66741;SDS011;53654;54.152;19.432;2022-08-18T09:46:57;9.10;;;7.50;;
66741;SDS011;53654;54.152;19.432;2022-08-18T09:57:36;8.00;;;6.50;;
66741;SDS011;53654;54.152;19.432;2022-08-18T10:16:15;7.50;;;6.70;;
66741;SDS011;53654;54.152;19.432;2022-08-18T10:21:28;9.70;;;7.50;;
66741;SDS011;53654;54.152;19.432;2022-08-18T10:24:20;9.10;;;7.80;;
66741;SDS011;53654;54.152;19.432;2022-08-18T10:27:04;8.30;;;6.80;;
66741;SDS011;53654;54.152;19.432;2022-08-18T10:29:43;10.30;;;7.90;;
66741;SDS011;53654;54.152;19.432;2022-08-18T10:34:45;11.60;;;9.20;;
66741;SDS011;53654;54.152;19.432;2022-08-18T10:40:04;11.80;;;8.00;;
66741;SDS011;53654;54.152;19.432;2022-08-18T10:43:00;8.40;;;7.60;;
66741;SDS011;53654;54.152;19.432;2022-08-18T10:45:56;9.10;;;8.40;;
66741;SDS011;53654;54.152;19.432;2022-08-18T10:48:56;10.10;;;8.00;;
66741;SDS011;53654;54.152;19.432;2022-08-18T10:51:50;8.60;;;7.40;;
66741;SDS011;53654;54.152;19.432;2022-08-18T11:03:06;10.60;;;8.30;;
66741;SDS011;53654;54.152;19.432;2022-08-18T11:06:02;11.00;;;10.00;;
66741;SDS011;53654;54.152;19.432;2022-08-18T11:08:42;9.80;;;9.00;;
66741;SDS011;53654;54.152;19.432;2022-08-18T11:11:41;12.40;;;8.40;;
66741;SDS011;53654;54.152;19.432;2022-08-18T11:20:16;14.20;;;9.50;;
66741;SDS011;53654;54.152;19.432;2022-08-18T11:22:48;10.30;;;8.90;;
66741;SDS011;53654;54.152;19.432;2022-08-18T11:25:23;8.90;;;8.10;;
66741;SDS011;53654;54.152;19.432;2022-08-18T11:27:54;9.40;;;8.20;;
66741;SDS011;53654;54.152;19.432;2022-08-18T11:30:25;9.20;;;8.00;;
66741;SDS011;53654;54.152;19.432;2022-08-18T11:33:02;10.80;;;9.80;;
66741;SDS011;53654;54.152;19.432;2022-08-18T11:35:43;10.80;;;9.60;;
66741;SDS011;53654;54.152;19.432;2022-08-18T11:38:16;10.70;;;9.70;;
66741;SDS011;53654;54.152;19.432;2022-08-18T11:40:51;9.90;;;8.90;;
66741;SDS011;53654;54.152;19.432;2022-08-18T11:43:38;9.90;;;8.80;;
66741;SDS011;53654;54.152;19.432;2022-08-18T11:46:30;10.80;;;9.70;;
66741;SDS011;53654;54.152;19.432;2022-08-18T11:49:16;11.90;;;8.90;;
66741;SDS011;53654;54.152;19.432;2022-08-18T11:52:01;9.90;;;8.60;;
66741;SDS011;53654;54.152;19.432;2022-08-18T11:55:00;9.00;;;8.10;;
66741;SDS011;53654;54.152;19.432;2022-08-18T11:57:50;10.70;;;9.70;;
66741;SDS011;53654;54.152;19.432;2022-08-18T12:05:49;8.50;;;7.70;;
66741;SDS011;53654;54.152;19.432;2022-08-18T12:08:31;9.50;;;8.00;;
66741;SDS011;53654;54.152;19.432;2022-08-18T12:11:23;8.30;;;7.50;;
66741;SDS011;53654;54.152;19.432;2022-08-18T12:13:57;9.50;;;8.70;;
66741;SDS011;53654;54.152;19.432;2022-08-18T12:16:48;8.20;;;7.30;;
66741;SDS011;53654;54.152;19.432;2022-08-18T12:19:21;9.10;;;6.90;;
66741;SDS011;53654;54.152;19.432;2022-08-18T12:24:23;8.10;;;7.20;;
66741;SDS011;53654;54.152;19.432;2022-08-18T12:27:05;7.70;;;6.60;;
66741;SDS011;53654;54.152;19.432;2022-08-18T12:29:48;10.40;;;6.20;;
66741;SDS011;53654;54.152;19.432;2022-08-18T12:32:19;8.50;;;6.30;;
66741;SDS011;53654;54.152;19.432;2022-08-18T12:35:09;6.70;;;6.00;;
66741;SDS011;53654;54.152;19.432;2022-08-18T12:37:42;7.70;;;6.60;;
66741;SDS011;53654;54.152;19.432;2022-08-18T12:40:31;7.90;;;6.70;;
66741;SDS011;53654;54.152;19.432;2022-08-18T12:42:59;7.80;;;6.10;;
66741;SDS011;53654;54.152;19.432;2022-08-18T12:45:28;6.60;;;5.80;;
66741;SDS011;53654;54.152;19.432;2022-08-18T12:47:57;6.50;;;6.00;;
66741;SDS011;53654;54.152;19.432;2022-08-18T12:50:31;10.00;;;9.10;;
66741;SDS011;53654;54.152;19.432;2022-08-18T12:53:20;6.60;;;5.70;;
66741;SDS011;53654;54.152;19.432;2022-08-18T12:56:16;9.10;;;8.30;;
66741;SDS011;53654;54.152;19.432;2022-08-18T12:58:48;5.90;;;5.30;;
66741;SDS011;53654;54.152;19.432;2022-08-18T13:01:17;7.70;;;5.30;;
66741;SDS011;53654;54.152;19.432;2022-08-18T13:03:46;5.80;;;5.30;;
66741;SDS011;53654;54.152;19.432;2022-08-18T13:06:36;7.50;;;5.80;;
66741;SDS011;53654;54.152;19.432;2022-08-18T13:09:26;6.90;;;5.40;;
66741;SDS011;53654;54.152;19.432;2022-08-18T13:12:14;7.20;;;6.00;;
66741;SDS011;53654;54.152;19.432;2022-08-18T13:14:44;6.40;;;5.30;;
66741;SDS011;53654;54.152;19.432;2022-08-18T13:17:13;6.90;;;4.90;;
66741;SDS011;53654;54.152;19.432;2022-08-18T13:20:01;5.90;;;5.20;;
66741;SDS011;53654;54.152;19.432;2022-08-18T13:22:42;6.40;;;5.40;;
66741;SDS011;53654;54.152;19.432;2022-08-18T13:25:12;5.50;;;4.60;;
66741;SDS011;53654;54.152;19.432;2022-08-18T13:28:01;4.80;;;4.40;;
66741;SDS011;53654;54.152;19.432;2022-08-18T13:30:30;6.10;;;5.60;;
66741;SDS011;53654;54.152;19.432;2022-08-18T13:33:02;5.70;;;5.20;;
66741;SDS011;53654;54.152;19.432;2022-08-18T13:35:51;7.40;;;6.60;;
66741;SDS011;53654;54.152;19.432;2022-08-18T13:38:21;5.60;;;5.10;;
66741;SDS011;53654;54.152;19.432;2022-08-18T13:40:56;5.70;;;5.20;;
66741;SDS011;53654;54.152;19.432;2022-08-18T13:43:30;5.40;;;4.90;;
66741;SDS011;53654;54.152;19.432;2022-08-18T13:46:04;5.80;;;5.30;;
66741;SDS011;53654;54.152;19.432;2022-08-18T13:48:36;7.30;;;6.50;;
66741;SDS011;53654;54.152;19.432;2022-08-18T13:51:08;6.60;;;4.90;;
66741;SDS011;53654;54.152;19.432;2022-08-18T13:53:41;6.60;;;5.20;;
66741;SDS011;53654;54.152;19.432;2022-08-18T13:56:24;6.00;;;5.50;;
66741;SDS011;53654;54.152;19.432;2022-08-18T13:58:58;6.30;;;5.20;;
66741;SDS011;53654;54.152;19.432;2022-08-18T14:01:26;5.70;;;4.80;;
66741;SDS011;53654;54.152;19.432;2022-08-18T14:04:15;5.40;;;4.90;;
66741;SDS011;53654;54.152;19.432;2022-08-18T14:06:47;5.50;;;5.00;;
66741;SDS011;53654;54.152;19.432;2022-08-18T14:09:23;6.10;;;5.30;;
66741;SDS011;53654;54.152;19.432;2022-08-18T14:12:08;7.30;;;6.60;;
66741;SDS011;53654;54.152;19.432;2022-08-18T14:14:51;6.50;;;6.10;;
66741;SDS011;53654;54.152;19.432;2022-08-18T14:17:25;6.70;;;4.90;;
66741;SDS011;53654;54.152;19.432;2022-08-18T14:19:53;7.40;;;6.80;;
66741;SDS011;53654;54.152;19.432;2022-08-18T14:22:49;7.10;;;6.20;;
66741;SDS011;53654;54.152;19.432;2022-08-18T14:25:37;7.10;;;4.80;;
66741;SDS011;53654;54.152;19.432;2022-08-18T14:28:27;5.90;;;5.20;;
66741;SDS011;53654;54.152;19.432;2022-08-18T14:30:56;5.60;;;5.00;;
66741;SDS011;53654;54.152;19.432;2022-08-18T14:33:26;6.00;;;5.40;;
66741;SDS011;53654;54.152;19.432;2022-08-18T14:36:17;6.80;;;6.20;;
66741;SDS011;53654;54.152;19.432;2022-08-18T14:38:57;5.60;;;4.90;;
66741;SDS011;53654;54.152;19.432;2022-08-18T14:41:27;5.40;;;4.90;;
66741;SDS011;53654;54.152;19.432;2022-08-18T14:43:57;5.80;;;5.20;;
66741;SDS011;53654;54.152;19.432;2022-08-18T14:46:41;6.10;;;5.20;;
66741;SDS011;53654;54.152;19.432;2022-08-18T14:49:22;5.20;;;4.50;;
66741;SDS011;53654;54.152;19.432;2022-08-18T14:51:57;6.40;;;5.10;;
66741;SDS011;53654;54.152;19.432;2022-08-18T14:54:27;7.60;;;4.90;;
66741;SDS011;53654;54.152;19.432;2022-08-18T14:56:57;5.30;;;4.70;;
66741;SDS011;53654;54.152;19.432;2022-08-18T14:59:29;6.50;;;4.80;;
66741;SDS011;53654;54.152;19.432;2022-08-18T15:02:08;5.60;;;5.10;;
66741;SDS011;53654;54.152;19.432;2022-08-18T15:04:40;6.50;;;5.30;;
66741;SDS011;53654;54.152;19.432;2022-08-18T15:07:23;5.00;;;4.60;;
66741;SDS011;53654;54.152;19.432;2022-08-18T15:09:52;5.50;;;5.00;;
66741;SDS011;53654;54.152;19.432;2022-08-18T15:12:40;5.50;;;5.10;;
66741;SDS011;53654;54.152;19.432;2022-08-18T15:15:10;8.50;;;5.30;;
66741;SDS011;53654;54.152;19.432;2022-08-18T15:17:45;5.90;;;4.80;;
66741;SDS011;53654;54.152;19.432;2022-08-18T15:20:21;5.90;;;5.30;;
66741;SDS011;53654;54.152;19.432;2022-08-18T15:23:00;5.50;;;5.00;;
66741;SDS011;53654;54.152;19.432;2022-08-18T15:25:55;7.70;;;5.00;;
66741;SDS011;53654;54.152;19.432;2022-08-18T15:28:25;5.50;;;4.70;;
66741;SDS011;53654;54.152;19.432;2022-08-18T15:30:54;6.50;;;5.40;;
66741;SDS011;53654;54.152;19.432;2022-08-18T15:33:43;9.40;;;5.00;;
66741;SDS011;53654;54.152;19.432;2022-08-18T15:36:17;6.00;;;5.40;;
66741;SDS011;53654;54.152;19.432;2022-08-18T15:38:59;5.70;;;5.20;;
66741;SDS011;53654;54.152;19.432;2022-08-18T15:41:34;5.90;;;5.40;;
66741;SDS011;53654;54.152;19.432;2022-08-18T15:44:12;6.60;;;5.30;;
66741;SDS011;53654;54.152;19.432;2022-08-18T15:46:41;6.40;;;5.60;;
66741;SDS011;53654;54.152;19.432;2022-08-18T15:49:19;5.70;;;5.20;;
66741;SDS011;53654;54.152;19.432;2022-08-18T15:51:49;6.90;;;5.10;;
66741;SDS011;53654;54.152;19.432;2022-08-18T15:54:19;7.70;;;5.80;;
66741;SDS011;53654;54.152;19.432;2022-08-18T15:56:48;6.40;;;5.30;;
66741;SDS011;53654;54.152;19.432;2022-08-18T15:59:25;6.10;;;5.10;;
66741;SDS011;53654;54.152;19.432;2022-08-18T16:02:06;6.70;;;5.30;;
66741;SDS011;53654;54.152;19.432;2022-08-18T16:04:38;7.70;;;5.60;;
66741;SDS011;53654;54.152;19.432;2022-08-18T16:07:11;5.50;;;5.00;;
66741;SDS011;53654;54.152;19.432;2022-08-18T16:10:03;5.60;;;5.20;;
66741;SDS011;53654;54.152;19.432;2022-08-18T16:12:32;7.20;;;5.10;;
66741;SDS011;53654;54.152;19.432;2022-08-18T16:15:00;4.90;;;4.50;;
66741;SDS011;53654;54.152;19.432;2022-08-18T16:17:34;5.30;;;4.90;;
66741;SDS011;53654;54.152;19.432;2022-08-18T16:20:02;5.00;;;4.60;;
66741;SDS011;53654;54.152;19.432;2022-08-18T16:22:33;6.70;;;5.40;;
66741;SDS011;53654;54.152;19.432;2022-08-18T16:25:04;6.10;;;5.50;;
66741;SDS011;53654;54.152;19.432;2022-08-18T16:27:34;7.30;;;5.30;;
66741;SDS011;53654;54.152;19.432;2022-08-18T16:30:04;5.80;;;5.30;;
66741;SDS011;53654;54.152;19.432;2022-08-18T16:32:32;6.20;;;5.70;;
66741;SDS011;53654;54.152;19.432;2022-08-18T16:35:01;6.60;;;5.70;;
66741;SDS011;53654;54.152;19.432;2022-08-18T16:37:29;6.70;;;6.00;;
66741;SDS011;53654;54.152;19.432;2022-08-18T16:39:58;9.60;;;6.10;;
66741;SDS011;53654;54.152;19.432;2022-08-18T16:42:26;6.90;;;6.20;;
66741;SDS011;53654;54.152;19.432;2022-08-18T16:44:59;6.50;;;5.70;;
66741;SDS011;53654;54.152;19.432;2022-08-18T16:47:30;9.50;;;5.90;;
66741;SDS011;53654;54.152;19.432;2022-08-18T16:49:59;8.50;;;5.60;;
66741;SDS011;53654;54.152;19.432;2022-08-18T16:52:27;7.00;;;6.20;;
66741;SDS011;53654;54.152;19.432;2022-08-18T16:54:55;6.30;;;5.70;;
66741;SDS011;53654;54.152;19.432;2022-08-18T16:57:24;6.70;;;6.00;;
66741;SDS011;53654;54.152;19.432;2022-08-18T17:00:22;7.00;;;6.30;;
66741;SDS011;53654;54.152;19.432;2022-08-18T17:03:10;7.60;;;6.40;;
66741;SDS011;53654;54.152;19.432;2022-08-18T17:05:58;8.20;;;6.30;;
66741;SDS011;53654;54.152;19.432;2022-08-18T17:08:28;11.10;;;6.00;;
66741;SDS011;53654;54.152;19.432;2022-08-18T17:11:01;7.00;;;6.30;;
66741;SDS011;53654;54.152;19.432;2022-08-18T17:13:30;8.30;;;6.20;;
66741;SDS011;53654;54.152;19.432;2022-08-18T17:15:59;11.00;;;6.50;;
66741;SDS011;53654;54.152;19.432;2022-08-18T17:18:27;10.20;;;6.90;;
66741;SDS011;53654;54.152;19.432;2022-08-18T17:21:00;6.80;;;6.20;;
66741;SDS011;53654;54.152;19.432;2022-08-18T17:23:32;7.40;;;6.70;;
66741;SDS011;53654;54.152;19.432;2022-08-18T17:26:07;10.40;;;6.30;;
66741;SDS011;53654;54.152;19.432;2022-08-18T17:28:42;8.50;;;6.90;;
66741;SDS011;53654;54.152;19.432;2022-08-18T17:31:19;8.90;;;8.00;;
66741;SDS011;53654;54.152;19.432;2022-08-18T17:33:52;8.50;;;7.60;;
66741;SDS011;53654;54.152;19.432;2022-08-18T17:36:30;9.70;;;7.80;;
66741;SDS011;53654;54.152;19.432;2022-08-18T17:39:06;11.00;;;8.00;;
66741;SDS011;53654;54.152;19.432;2022-08-18T17:41:37;8.60;;;7.60;;
66741;SDS011;53654;54.152;19.432;2022-08-18T17:44:25;11.20;;;8.20;;
66741;SDS011;53654;54.152;19.432;2022-08-18T17:46:57;10.20;;;8.00;;
66741;SDS011;53654;54.152;19.432;2022-08-18T17:49:31;9.20;;;8.30;;
66741;SDS011;53654;54.152;19.432;2022-08-18T17:52:43;9.70;;;8.30;;
66741;SDS011;53654;54.152;19.432;2022-08-18T17:55:22;10.60;;;8.40;;
66741;SDS011;53654;54.152;19.432;2022-08-18T17:57:55;8.70;;;7.90;;
66741;SDS011;53654;54.152;19.432;2022-08-18T18:00:28;9.70;;;7.90;;